Sligo Airport - TAF
(Terminal Area Forecast)


Issued at 05:06 UTC on Wed. 28-Sep-22


--- METARS(SA) ---
METAR EISG(SLIGO) 280500Z AUTO 34013KT 9999 FEW035 BKN042 BKN050
11/08 Q1006 =


--- TAFS() ---
TAF EISG(SLIGO) 280500Z 2806/2815 34012KT 9999 FEW035 BKN040 PROB40
TEMPO 2806/2814 32015G25KT -SHRA BKN014 =


--- SIGMETS(WS) ---
IE - No VALID SIGMETS/Warnings FOR THIS AREA

--- SIGMETS Volcanic(WV) ---
IE - No VALID SIGMETS/Warnings FOR THIS AREA

--- SIGMETS(WS) ---
UK - No VALID SIGMETS/Warnings FOR THIS AREA

Sligo Airport - METARs

Latest METARs for Sligo and Donegal Airports - updated every 30 mins